AirNav   Air Wisconsin Up To $57,000 Bonus
 
 1147 users online  

0MO9 Emerson Heliport
Ferguson, Missouri, USA

GOING TO FERGUSON?


FAA INFORMATION EFFECTIVE 07 NOVEMBER 2019

Location

FAA Identifier: 0MO9
Lat/Long: 38-43-46.1820N 090-16-42.4060W
38-43.769700N 090-16.706767W
38.7294950,-90.2784461
(estimated)
Elevation: 575 ft. / 175 m (estimated)
Variation: 02E (1985)
From city: 1 mile N of FERGUSON, MO
Time zone: UTC -6 (UTC -5 during Daylight Saving Time)
Zip code: 63121

Heliport Operations

Heliport use: Private use. Permission required prior to landing
Activation date: 05/1991
Control tower: no
ARTCC: KANSAS CITY CENTER
FSS: SAINT LOUIS FLIGHT SERVICE STATION
Attendance: UNATNDD
Wind indicator: yes
Segmented circle: no
Lights: FOR PERIMETER LGTS CALL 314-553-1301.

Heliport Communications

WX ASOS at STL (4 nm W): PHONE 314-890-4790
WX ASOS at CPS (11 nm SE): PHONE 618-332-0001
WX ASOS at SET (14 nm NW): 118.075 (636-250-4590)
WX AWOS-3 at ALN (15 nm NE): 128.0 (618-259-7231)
WX ASOS at SUS (18 nm W): 134.8 (314-890-7255)

Nearby radio navigation aids

VOR radial/distance  VOR name  Freq  Var
STLr129/12.4ST LOUIS VORTAC117.4001E
TOYr264/16.9TROY VORTAC116.0004E
FTZr081/32.5FORISTELL VORTAC110.8005E

 
NDB name  Hdg/Dist  Freq  Var  ID
ZUMAY181/3.540401WST ... -
OBLIO116/10.133801WLM .-.. --
EAVES077/13.022701WFZ ..-. --..
CIVIC MEMORIAL228/14.326301WCVM -.-. ...- --

Heliport Services

Runway Information

Helipad H1

Dimensions: 50 x 50 ft. / 15 x 15 m
Surface: concrete
Runway edge lights: PERI
Operational restrictions: CIRCULAR PAD.
Latitude: 38-43.769700N
Longitude: 090-16.706767W
Elevation: 575.0 ft.
Traffic pattern: leftleft

Heliport Ownership and Management from official FAA records

Ownership: Privately-owned
Owner: EMERSON ELECTRIC CO
18444 EDISON AVE
CHESTERFIELD, MO 63005-3631
Phone (314) 553-2225
Manager: STEVE VON GRUBEN
18444 EDISON AVE
CHESTERFIELD, MO 63005-3631
Phone (314) 553-2225

Additional Remarks

OWNER DESIRES ARPT NOT BE CHARTED.
FOR CD CTC ST LOUIS APCH AT 314-890-1018.

Instrument Procedures

There are no published instrument procedures at 0MO9.

Some nearby airports with instrument procedures:

KSTL - St Louis Lambert International Airport (4 nm W)
1H0 - Creve Coeur Airport (11 nm W)
KCPS - St Louis Downtown Airport (11 nm SE)
KSET - St Charles County Smartt Airport (14 nm NW)
KALN - St Louis Regional Airport (15 nm NE)
KSUS - Spirit of St Louis Airport (18 nm W)
 
Loc | Ops | Rwys | IFR | FBO | Links
Com | Nav | Svcs | Stats | Notes

Kansas City Aviation Department
 
Area around 0MO9 (Emerson Heliport)
 
Road maps at: MapQuest Bing Google
 
Aerial photo
No photo
 
Sectional chart

 
Airport distance calculator
Flying to Emerson Heliport? Find the distance to fly.

From to 0MO9

Sunrise and sunset
Times for 15-Nov-2019
 Local
(UTC-6)
 Zulu
(UTC)
Morning civil twilight06:1612:16
Sunrise06:4412:44
Sunset16:4722:47
Evening civil twilight17:1523:15

Current date and time
Zulu (UTC)  15-Nov-2019 20:54:34
Local (UTC-6)  15-Nov-2019 14:54:34
 
METAR
KSTL 
4nm W 
151951Z VRB03KT 10SM FEW250 07/M04 A3038 RMK AO2 SLP296 T00671039
KCPS 
11nm SE 
151953Z 36005KT 10SM CLR 08/M04 A3037 RMK AO2 SLP289 T00781044
KSET 
14nm NW 
151954Z AUTO A3037 RMK AO2 SLPNO PWINO FZRANO $
KALN 
15nm NE 
151950Z VRB04KT 10SM FEW250 08/M03 A3037
KSUS 
18nm W 
151954Z 30003KT 6SM HZ CLR 09/M06 A3037 RMK AO2 SLP290 T00941056
TAF
KSTL 
4nm W 
151726Z 1518/1624 VRB04KT P6SM SKC TEMPO 1610/1613 5SM BR FM161800 12005KT P6SM BKN090
KCPS 
11nm SE 
151726Z 1518/1618 VRB03KT P6SM SKC FM161100 00000KT 3SM BR FEW250 FM161400 VRB03KT P6SM FEW200
KSUS 
18nm W 
151726Z 1518/1618 VRB04KT P6SM SKC FM160900 00000KT 3SM BR FEW250 FM161400 VRB03KT P6SM SCT200
NOTAMs
Click for the latest NOTAMs
NOTAMs are issued by the DoD/FAA and will open in a separate window not controlled by AirNav.

 

 
 

Would you like to see your business listed on this page?

 If your business provides an interesting product or service to pilots, flight crews, aircraft, or users of the Emerson Heliport, you should consider listing it here.  To start the listing process, click on the button below
 
Add a business
 

Other Pages about Emerson Heliport

Update a link
 
Copyright © AirNav, LLC. All rights reserved. Privacy Policy  Contact